Time;durP1;ratioP1;P1;durP2;ratioP2;P2;SDS_P1;SDS_P2;PMS_P1;PMS_P2;Temp;Humidity;BMP_temperature;BMP_pressure;BME280_temperature;BME280_humidity;BME280_pressure;Samples;Min_cycle;Max_cycle;Signal;HPM_P1;HPM_P2
2023/04/18 00:00:15;;;;;;;8.73;6.60;;;;;;;6.95;82.31;101772.41;7782329;18;20085;-72
2023/04/18 00:02:42;;;;;;;6.55;5.85;;;;;;;7.17;81.09;101810.25;7772361;18;20010;-73
2023/04/18 00:05:11;;;;;;;6.75;6.20;;;;;;;7.16;80.99;101805.94;7783076;18;20491;-73
2023/04/18 00:07:38;;;;;;;12.27;6.47;;;;;;;7.14;80.51;101799.88;7750887;18;20061;-73
2023/04/18 00:10:05;;;;;;;10.90;7.18;;;;;;;7.16;79.58;101803.31;7729970;18;20123;-72
2023/04/18 00:12:33;;;;;;;8.02;7.22;;;;;;;6.56;79.39;101697.53;7725360;18;20497;-73
2023/04/18 00:15:03;;;;;;;13.68;6.50;;;;;;;7.15;78.85;101792.91;7776378;18;19998;-73
2023/04/18 00:17:30;;;;;;;6.93;6.25;;;;;;;7.12;79.35;101792.97;7767902;18;20056;-73
2023/04/18 00:19:57;;;;;;;7.93;7.22;;;;;;;6.82;79.68;101760.53;7773118;18;20009;-73
2023/04/18 00:22:24;;;;;;;11.05;6.63;;;;;;;7.04;79.58;101794.88;7767436;18;20014;-71
2023/04/18 00:24:51;;;;;;;6.75;6.20;;;;;;;6.94;79.13;101782.00;7723226;18;20083;-73
2023/04/18 00:27:18;;;;;;;6.97;6.00;;;;;;;6.21;79.01;101674.72;7783542;18;19994;-74
2023/04/18 00:29:44;;;;;;;7.00;6.38;;;;;;;6.51;79.25;101721.97;7771319;18;20658;-72
2023/04/18 00:32:10;;;;;;;9.70;7.03;;;;;;;6.78;79.05;101765.78;7781914;18;20241;-74
2023/04/18 00:34:37;;;;;;;6.95;6.32;;;;;;;5.97;78.29;101650.84;7768845;18;20438;-72
2023/04/18 00:37:04;;;;;;;9.02;5.93;;;;;;;6.75;78.26;101771.03;7759886;18;20481;-72
2023/04/18 00:39:30;;;;;;;7.97;5.45;;;;;;;6.75;77.88;101755.41;7767402;18;20018;-73
2023/04/18 00:41:56;;;;;;;5.82;5.38;;;;;;;6.68;77.85;101761.63;7777155;18;20061;-74
2023/04/18 00:44:23;;;;;;;6.97;6.40;;;;;;;6.62;77.38;101764.38;7785688;18;19998;-74
2023/04/18 00:46:50;;;;;;;6.88;6.32;;;;;;;6.54;78.40;101755.81;7755951;18;20002;-74
2023/04/18 00:49:16;;;;;;;6.10;5.57;;;;;;;6.10;77.79;101692.31;7737699;18;20445;-74
2023/04/18 00:51:43;;;;;;;8.25;6.10;;;;;;;6.23;78.72;101737.25;7772222;18;20070;-74
2023/04/18 00:54:11;;;;;;;6.47;5.80;;;;;;;6.42;78.99;101759.50;7741471;18;20010;-75
2023/04/18 00:56:39;;;;;;;6.18;5.68;;;;;;;6.37;79.43;101754.38;7771236;18;19997;-76
2023/04/18 00:59:07;;;;;;;6.45;5.85;;;;;;;6.30;78.49;101754.50;7777902;18;20528;-72
2023/04/18 01:01:33;;;;;;;5.88;5.28;;;;;;;6.27;80.65;101765.84;7726644;18;19994;-74
2023/04/18 01:03:59;;;;;;;8.52;6.43;;;;;;;6.33;80.13;101778.75;7776425;18;20006;-75
2023/04/18 01:06:29;;;;;;;6.43;5.90;;;;;;;6.31;80.09;101783.16;7766029;18;20002;-72
2023/04/18 01:08:56;;;;;;;13.20;6.65;;;;;;;6.32;80.61;101784.03;7774726;18;20005;-72
2023/04/18 01:11:22;;;;;;;13.50;5.90;;;;;;;6.18;81.26;101779.03;7784531;18;20207;-74
2023/04/18 01:14:00;;;;;;;10.45;6.07;;;;;;;6.14;82.19;101788.66;7729127;18;20136;-74
2023/04/18 01:16:27;;;;;;;6.80;6.20;;;;;;;6.08;82.86;101773.13;7785942;18;20009;-72
2023/04/18 01:18:55;;;;;;;5.97;5.47;;;;;;;6.10;82.64;101786.13;7732624;18;20310;-74
2023/04/18 01:21:21;;;;;;;6.32;5.72;;;;;;;6.14;84.00;101787.78;7783447;18;20439;-74
2023/04/18 01:23:49;;;;;;;7.57;5.35;;;;;;;6.04;84.60;101792.28;7771547;18;20570;-74
2023/04/18 01:26:16;;;;;;;8.45;5.97;;;;;;;5.90;84.35;101771.63;7763472;18;19994;-73
2023/04/18 01:28:42;;;;;;;7.50;5.68;;;;;;;5.73;85.67;101738.03;7723169;18;20002;-74
2023/04/18 01:31:09;;;;;;;6.85;5.68;;;;;;;6.20;88.17;101816.38;7783048;18;20002;-74
2023/04/18 01:33:36;;;;;;;7.05;6.45;;;;;;;5.63;89.29;101735.56;7768416;18;20069;-71
2023/04/18 01:36:02;;;;;;;6.93;6.38;;;;;;;4.87;90.92;101621.28;7778329;18;20013;-71
2023/04/18 01:38:29;;;;;;;17.95;6.22;;;;;;;6.01;93.67;101827.94;7767263;18;20038;-72
2023/04/18 01:40:55;;;;;;;7.20;6.50;;;;;;;5.74;95.31;101794.44;7755643;18;20004;-73
2023/04/18 01:43:22;;;;;;;7.18;6.57;;;;;;;5.91;97.53;101829.78;7740737;18;20006;-75
2023/04/18 01:45:48;;;;;;;7.70;6.47;;;;;;;5.87;98.64;101839.41;7774693;18;20639;-72
2023/04/18 01:48:14;;;;;;;7.13;6.45;;;;;;;5.89;100.00;101848.03;7743518;18;20052;-72
2023/04/18 01:50:41;;;;;;;7.40;6.80;;;;;;;5.89;100.00;101852.41;7777953;18;20008;-72
2023/04/18 01:53:07;;;;;;;7.43;6.80;;;;;;;5.86;100.00;101868.09;7780650;18;20002;-72
2023/04/18 01:55:33;;;;;;;7.22;6.55;;;;;;;5.56;100.00;101819.00;7750079;18;19998;-72
2023/04/18 01:58:00;;;;;;;8.38;6.82;;;;;;;5.68;100.00;101854.44;7777152;18;19994;-72
2023/04/18 02:00:26;;;;;;;7.25;6.30;;;;;;;5.84;100.00;101881.13;7785786;18;20120;-76
2023/04/18 02:02:53;;;;;;;8.40;7.15;;;;;;;5.79;100.00;101888.13;7775372;18;20018;-73
2023/04/18 02:05:20;;;;;;;7.80;6.97;;;;;;;5.02;100.00;101776.31;7764205;18;20214;-72
2023/04/18 02:07:48;;;;;;;5.93;5.43;;;;;;;5.70;100.00;101899.53;7771875;18;20189;-72
2023/04/18 02:10:14;;;;;;;6.18;5.55;;;;;;;5.15;100.00;101811.69;7782057;18;19998;-75
2023/04/18 02:12:41;;;;;;;9.38;6.60;;;;;;;5.63;100.00;101897.88;7770509;18;20410;-71
2023/04/18 02:15:08;;;;;;;11.20;6.93;;;;;;;5.53;100.00;101897.16;7758515;18;20010;-73
2023/04/18 02:17:35;;;;;;;8.98;6.47;;;;;;;5.51;100.00;101892.81;7769607;18;20014;-72
2023/04/18 02:20:01;;;;;;;6.97;6.38;;;;;;;5.50;100.00;101898.94;7780039;18;20051;-72
2023/04/18 02:22:28;;;;;;;7.57;6.38;;;;;;;5.10;100.00;101844.72;7816933;18;20402;-72
2023/04/18 02:24:54;;;;;;;7.18;6.45;;;;;;;5.42;100.00;101901.63;7776790;18;20063;-72
2023/04/18 02:27:21;;;;;;;7.65;6.90;;;;;;;5.42;100.00;101896.41;7783809;18;20002;-72
2023/04/18 02:29:47;;;;;;;6.95;6.35;;;;;;;5.42;100.00;101909.44;7794472;18;20005;-71
2023/04/18 02:32:13;;;;;;;7.20;6.47;;;;;;;5.35;100.00;101900.84;7829493;18;20002;-71
2023/04/18 02:34:40;;;;;;;7.07;5.80;;;;;;;5.26;100.00;101900.06;7816593;18;20005;-72
2023/04/18 02:37:06;;;;;;;6.28;5.68;;;;;;;5.16;100.00;101896.69;7827907;18;20007;-72
2023/04/18 02:39:33;;;;;;;8.05;6.30;;;;;;;5.14;100.00;101908.88;7758604;18;20002;-74
2023/04/18 02:42:00;;;;;;;6.78;6.05;;;;;;;5.09;100.00;101910.63;7777891;18;20069;-72
2023/04/18 02:44:27;;;;;;;6.97;6.32;;;;;;;4.93;100.00;101892.59;7786338;18;20367;-72
2023/04/18 02:46:53;;;;;;;6.65;5.65;;;;;;;4.52;100.00;101841.81;7776188;18;19997;-72
2023/04/18 02:49:22;;;;;;;7.80;7.10;;;;;;;4.69;100.00;101877.19;7764178;18;20029;-73
2023/04/18 02:51:48;;;;;;;6.68;5.80;;;;;;;4.46;100.00;101838.41;7724356;18;20003;-72
2023/04/18 02:54:15;;;;;;;6.90;6.03;;;;;;;4.87;100.00;101913.47;7783521;18;20251;-73
2023/04/18 02:56:41;;;;;;;6.55;5.93;;;;;;;3.92;100.00;101740.97;7775193;18;20152;-72
2023/04/18 02:59:08;;;;;;;7.45;5.32;;;;;;;4.95;100.00;101922.06;7782883;18;20013;-71
2023/04/18 03:01:34;;;;;;;7.05;6.40;;;;;;;4.93;100.00;101912.53;7771618;18;19998;-72
2023/04/18 03:04:01;;;;;;;6.47;5.97;;;;;;;4.36;100.00;101828.06;7739134;18;20006;-72
2023/04/18 03:06:28;;;;;;;7.03;5.68;;;;;;;4.45;100.00;101858.34;7748029;18;20313;-72
2023/04/18 03:08:54;;;;;;;7.03;6.32;;;;;;;4.02;100.00;101790.25;7762665;18;20006;-73
2023/04/18 03:11:21;;;;;;;6.55;5.40;;;;;;;4.65;100.00;101910.19;7795485;18;20475;-72
2023/04/18 03:13:47;;;;;;;6.80;6.20;;;;;;;4.69;100.00;101911.88;7774059;18;20001;-72
2023/04/18 03:16:14;;;;;;;6.80;6.13;;;;;;;4.48;100.00;101871.31;7783117;18;20031;-72
2023/04/18 03:18:41;;;;;;;5.70;5.30;;;;;;;4.68;100.00;101888.47;7754099;18;20007;-71
2023/04/18 03:21:07;;;;;;;6.60;6.05;;;;;;;4.64;100.00;101903.25;7782289;18;20166;-72
2023/04/18 03:23:33;;;;;;;8.88;5.72;;;;;;;4.60;100.00;101914.53;7771145;18;19998;-72
2023/04/18 03:26:02;;;;;;;7.07;6.43;;;;;;;4.52;100.00;101930.19;7740152;18;20052;-72
2023/04/18 03:28:29;;;;;;;7.10;6.45;;;;;;;3.98;100.00;101851.75;7768256;18;20002;-72
2023/04/18 03:30:56;;;;;;;7.03;6.40;;;;;;;4.51;100.00;101914.59;7778709;18;20022;-72
2023/04/18 03:33:22;;;;;;;5.40;5.03;;;;;;;4.52;100.00;101911.16;7767987;18;20009;-72
2023/04/18 03:35:49;;;;;;;6.68;6.20;;;;;;;3.96;100.00;101820.56;7727858;18;20079;-71
2023/04/18 03:38:15;;;;;;;6.68;6.13;;;;;;;4.36;100.00;101887.84;7784690;18;20080;-73
2023/04/18 03:40:43;;;;;;;5.63;5.18;;;;;;;4.28;100.00;101868.00;7724794;18;20018;-72
2023/04/18 03:43:09;;;;;;;6.28;5.63;;;;;;;4.00;100.00;101837.00;7783357;18;20005;-72
2023/04/18 03:45:36;;;;;;;6.43;5.90;;;;;;;4.49;100.00;101905.94;7724390;18;20467;-72
2023/04/18 03:48:02;;;;;;;9.98;6.35;;;;;;;4.53;100.00;101911.13;7779187;18;20010;-72
2023/04/18 03:50:29;;;;;;;8.80;5.00;;;;;;;4.54;100.00;101912.00;7770106;18;20010;-72
2023/04/18 03:52:55;;;;;;;7.30;6.70;;;;;;;4.52;100.00;101909.41;7777926;18;20225;-71
2023/04/18 03:55:22;;;;;;;5.63;4.93;;;;;;;4.39;100.00;101887.84;7787387;18;20002;-74
2023/04/18 03:57:48;;;;;;;6.53;5.93;;;;;;;4.41;100.00;101908.63;7756435;18;20356;-72
2023/04/18 04:00:15;;;;;;;20.27;5.45;;;;;;;3.77;100.00;101796.47;7785802;18;20001;-73
2023/04/18 04:02:42;;;;;;;7.13;6.55;;;;;;;4.46;100.00;101904.25;7773988;18;20002;-70
2023/04/18 04:05:08;;;;;;;6.82;6.25;;;;;;;4.35;100.00;101901.75;7790795;18;20526;-72
2023/04/18 04:07:35;;;;;;;6.50;5.90;;;;;;;3.79;100.00;101828.50;7780458;18;20158;-73
2023/04/18 04:10:01;;;;;;;6.80;6.18;;;;;;;4.13;100.00;101894.94;7737821;18;20222;-73
2023/04/18 04:12:28;;;;;;;6.55;5.85;;;;;;;4.07;100.00;101889.78;7770367;18;20018;-72
2023/04/18 04:15:00;;;;;;;6.60;5.95;;;;;;;4.03;100.00;101901.06;7736783;18;20271;-71
2023/04/18 04:17:27;;;;;;;7.72;6.93;;;;;;;4.06;100.00;101893.25;7786606;18;20008;-73
2023/04/18 04:19:53;;;;;;;8.73;6.82;;;;;;;4.02;100.00;101884.63;7776645;18;20052;-73
2023/04/18 04:22:19;;;;;;;6.40;5.85;;;;;;;3.85;100.00;101847.47;7787664;18;20006;-73
2023/04/18 04:24:46;;;;;;;6.10;5.60;;;;;;;4.03;100.00;101867.28;7797513;18;19997;-73
2023/04/18 04:27:13;;;;;;;6.35;5.72;;;;;;;3.95;100.00;101844.00;7833033;18;20007;-72
2023/04/18 04:29:40;;;;;;;5.63;5.03;;;;;;;3.85;100.00;101821.50;7781001;18;20076;-73
2023/04/18 04:32:06;;;;;;;6.47;5.80;;;;;;;3.84;100.00;101812.00;7782468;18;20008;-72
2023/04/18 04:34:34;;;;;;;5.68;5.10;;;;;;;4.28;100.00;101896.59;7788840;18;20258;-73
2023/04/18 04:37:01;;;;;;;11.63;7.15;;;;;;;3.88;100.00;101837.09;7828897;18;20017;-73
2023/04/18 04:39:27;;;;;;;5.70;5.20;;;;;;;3.72;100.00;101821.59;7816611;18;20119;-72
2023/04/18 04:41:56;;;;;;;6.43;5.85;;;;;;;3.95;100.00;101886.41;7826165;18;20009;-73
2023/04/18 04:44:24;;;;;;;5.78;5.35;;;;;;;3.62;100.00;101830.31;7779141;18;20002;-72
2023/04/18 04:46:51;;;;;;;6.18;5.78;;;;;;;3.62;100.00;101827.72;7777074;18;20006;-74
2023/04/18 04:49:17;;;;;;;6.57;6.07;;;;;;;3.98;100.00;101896.75;7783889;18;20082;-70
2023/04/18 04:51:46;;;;;;;6.72;6.10;;;;;;;2.83;100.00;101692.34;7775204;18;19998;-71
2023/04/18 04:54:12;;;;;;;8.68;7.95;;;;;;;4.08;100.00;101910.56;7763123;18;20062;-69
2023/04/18 04:56:39;;;;;;;11.30;7.10;;;;;;;4.13;100.00;101916.59;7772962;18;19998;-70
2023/04/18 04:59:06;;;;;;;7.95;6.35;;;;;;;4.06;100.00;101908.84;7781713;18;20188;-71
2023/04/18 05:01:32;;;;;;;6.22;5.63;;;;;;;4.10;100.00;101915.75;7770847;18;20162;-70
2023/04/18 05:03:59;;;;;;;5.90;5.40;;;;;;;4.07;100.00;101894.97;7759208;18;20489;-70
2023/04/18 05:06:26;;;;;;;6.97;6.43;;;;;;;4.30;100.00;101907.84;7788503;18;20009;-72
2023/04/18 05:08:53;;;;;;;7.38;6.63;;;;;;;4.53;100.00;101928.44;7775826;18;20005;-71
2023/04/18 05:11:20;;;;;;;9.27;7.00;;;;;;;4.59;100.00;101931.00;7744843;18;20002;-70
2023/04/18 05:13:46;;;;;;;6.13;5.63;;;;;;;4.77;100.00;101945.59;7773212;18;20050;-71
2023/04/18 05:16:12;;;;;;;8.38;7.47;;;;;;;4.88;100.00;101945.53;7781790;18;20065;-71
2023/04/18 05:18:40;;;;;;;6.50;5.88;;;;;;;4.99;100.00;101935.88;7750918;18;20009;-70
2023/04/18 05:21:06;;;;;;;6.63;6.13;;;;;;;5.09;100.00;101947.94;7779857;18;19994;-71
2023/04/18 05:23:36;;;;;;;12.65;6.57;;;;;;;5.20;100.00;101946.09;7770220;18;20320;-69
2023/04/18 05:26:03;;;;;;;6.93;6.00;;;;;;;5.30;100.00;101954.66;7780892;18;20010;-70
2023/04/18 05:28:30;;;;;;;6.88;6.30;;;;;;;5.37;100.00;101950.25;7748861;18;20013;-71
2023/04/18 05:31:00;;;;;;;6.93;6.43;;;;;;;5.07;100.00;101887.25;7778138;18;19997;-71
2023/04/18 05:33:28;;;;;;;6.53;5.97;;;;;;;5.39;100.00;101932.88;7786559;18;19994;-71
2023/04/18 05:35:55;;;;;;;7.00;6.40;;;;;;;5.65;100.00;101960.38;7777699;18;20202;-70
2023/04/18 05:38:21;;;;;;;8.50;7.50;;;;;;;5.10;100.00;101853.38;7766920;18;19990;-68
2023/04/18 05:40:50;;;;;;;7.95;6.38;;;;;;;4.80;100.00;101780.00;7775890;18;20005;-71
2023/04/18 05:43:18;;;;;;;6.93;6.32;;;;;;;6.04;100.00;101964.28;7785531;18;19994;-70
2023/04/18 05:45:45;;;;;;;9.23;7.20;;;;;;;6.19;100.00;101968.41;7774287;18;20102;-71
2023/04/18 05:48:12;;;;;;;8.23;7.07;;;;;;;5.99;100.00;101907.03;7782213;18;20329;-69
2023/04/18 05:50:38;;;;;;;11.10;7.45;;;;;;;6.43;100.00;101969.81;7770785;18;20009;-70
2023/04/18 05:53:05;;;;;;;9.48;7.47;;;;;;;6.47;100.00;101975.84;7779138;18;20005;-70
2023/04/18 05:55:33;;;;;;;8.60;7.75;;;;;;;6.17;100.00;101915.44;7769074;18;20023;-69
2023/04/18 05:57:59;;;;;;;13.02;8.95;;;;;;;6.20;100.00;101907.59;7759362;18;19998;-69
2023/04/18 06:00:26;;;;;;;8.75;7.72;;;;;;;6.47;100.00;101945.41;7745835;18;20057;-70
2023/04/18 06:02:53;;;;;;;9.93;6.88;;;;;;;6.65;100.00;101964.28;7735208;18;20087;-70
2023/04/18 06:05:19;;;;;;;8.27;7.50;;;;;;;6.42;100.00;101899.47;7785682;18;20498;-70
2023/04/18 06:07:47;;;;;;;8.25;7.55;;;;;;;6.79;100.00;101949.28;7732029;18;20084;-69
2023/04/18 06:10:14;;;;;;;11.30;6.85;;;;;;;7.12;100.00;101976.56;7742253;18;20011;-71
2023/04/18 06:12:41;;;;;;;7.15;6.43;;;;;;;7.39;100.00;101983.03;7729822;18;20383;-69
2023/04/18 06:15:08;;;;;;;6.53;5.93;;;;;;;7.48;100.00;101968.97;7782479;18;20002;-71
2023/04/18 06:17:34;;;;;;;10.13;7.25;;;;;;;7.52;100.00;101947.13;7768955;18;20021;-72
2023/04/18 06:20:03;;;;;;;11.85;9.15;;;;;;;7.51;100.00;101934.06;7776322;18;20005;-71
2023/04/18 06:22:30;;;;;;;10.18;7.53;;;;;;;7.32;100.00;101873.53;7750498;18;20014;-70
2023/04/18 06:24:56;;;;;;;12.05;6.80;;;;;;;7.33;100.00;101872.63;7777009;18;20027;-69
2023/04/18 06:27:25;;;;;;;9.30;8.25;;;;;;;7.62;100.00;101898.16;7786817;18;20022;-71
2023/04/18 06:29:57;;;;;;;9.90;8.15;;;;;;;7.44;99.79;101851.50;7776820;18;20013;-71
2023/04/18 06:32:24;;;;;;;7.28;6.57;;;;;;;7.53;98.40;101867.00;7766575;18;20091;-71
2023/04/18 06:34:52;;;;;;;8.70;6.93;;;;;;;7.63;95.70;101878.97;7774105;18;20485;-72
2023/04/18 06:37:19;;;;;;;7.70;6.97;;;;;;;7.86;94.88;101885.44;7783842;18;20525;-71
2023/04/18 06:39:46;;;;;;;12.95;7.53;;;;;;;7.94;93.44;101870.47;7772189;18;20222;-70
2023/04/18 06:42:12;;;;;;;9.35;7.10;;;;;;;7.89;91.36;101847.03;7762886;18;20002;-73
2023/04/18 06:44:39;;;;;;;7.05;6.40;;;;;;;7.94;90.08;101849.56;7769189;18;19994;-70
2023/04/18 06:47:05;;;;;;;8.32;7.43;;;;;;;8.01;89.33;101848.50;7779355;18;20464;-70
2023/04/18 06:49:32;;;;;;;6.57;5.85;;;;;;;8.05;88.77;101850.16;7767668;18;20014;-70
2023/04/18 06:51:58;;;;;;;7.07;6.53;;;;;;;7.80;87.61;101776.72;7756359;18;20344;-69
2023/04/18 06:54:24;;;;;;;8.10;6.70;;;;;;;8.32;86.85;101835.59;7786171;18;19994;-70
2023/04/18 06:56:51;;;;;;;18.50;6.60;;;;;;;8.22;85.29;101791.38;7733316;18;20006;-71
2023/04/18 06:59:20;;;;;;;8.20;6.53;;;;;;;8.41;88.11;101850.22;7784536;18;20002;-70
2023/04/18 07:01:46;;;;;;;7.78;6.25;;;;;;;8.63;88.97;101883.72;7774684;18;20054;-69
2023/04/18 07:04:13;;;;;;;8.05;7.20;;;;;;;8.83;86.75;101859.66;7783281;18;19997;-70
2023/04/18 07:06:43;;;;;;;12.32;7.40;;;;;;;8.71;86.96;101861.66;7752288;18;20009;-71
2023/04/18 07:09:09;;;;;;;8.27;7.47;;;;;;;8.75;86.81;101865.91;7779883;18;19997;-72
2023/04/18 07:11:36;;;;;;;11.02;7.22;;;;;;;8.81;86.55;101858.81;7728764;18;20457;-71
2023/04/18 07:14:02;;;;;;;8.77;7.57;;;;;;;8.84;86.24;101850.88;7727821;18;20151;-71
2023/04/18 07:16:28;;;;;;;9.50;7.05;;;;;;;8.65;84.13;101830.44;7767402;18;20006;-69
2023/04/18 07:18:55;;;;;;;7.25;6.68;;;;;;;8.65;82.30;101812.09;7771860;18;20300;-71
2023/04/18 07:21:22;;;;;;;6.80;6.20;;;;;;;7.64;83.29;101636.84;7785292;18;20006;-69
2023/04/18 07:23:49;;;;;;;17.52;6.82;;;;;;;8.88;82.56;101821.09;7772782;18;20158;-71
2023/04/18 07:26:15;;;;;;;7.85;7.05;;;;;;;8.73;80.95;101749.94;7761440;18;20094;-70
2023/04/18 07:28:42;;;;;;;5.85;5.30;;;;;;;8.50;79.75;101710.47;7771707;18;20058;-71
2023/04/18 07:31:10;;;;;;;7.20;6.28;;;;;;;9.16;79.16;101800.25;7779549;18;20077;-72
2023/04/18 07:33:37;;;;;;;6.38;5.88;;;;;;;9.47;78.53;101791.50;7728982;18;20006;-71
2023/04/18 07:36:04;;;;;;;7.88;6.93;;;;;;;9.34;75.93;101725.50;7780258;18;20347;-71
2023/04/18 07:38:34;;;;;;;8.48;5.28;;;;;;;9.43;74.90;101732.25;7769840;18;20014;-71
2023/04/18 07:41:01;;;;;;;6.57;5.50;;;;;;;9.37;74.40;101715.78;7758803;18;20025;-70
2023/04/18 07:43:27;;;;;;;8.43;5.70;;;;;;;9.31;75.22;101699.41;7787795;18;20498;-70
2023/04/18 07:45:54;;;;;;;7.13;6.25;;;;;;;9.64;77.72;101783.13;7737759;18;20077;-72
2023/04/18 07:48:21;;;;;;;7.53;6.85;;;;;;;9.46;75.53;101701.56;7784865;18;20072;-71
2023/04/18 07:50:48;;;;;;;6.15;5.60;;;;;;;9.58;74.86;101727.38;7776189;18;20006;-72
2023/04/18 07:53:14;;;;;;;6.35;5.72;;;;;;;9.36;75.91;101747.25;7782974;18;19994;-71
2023/04/18 07:55:42;;;;;;;6.03;5.63;;;;;;;9.09;78.82;101770.75;7753844;18;20198;-71
2023/04/18 07:58:11;;;;;;;7.13;6.53;;;;;;;8.77;80.38;101735.03;7782186;18;20289;-70
2023/04/18 08:00:38;;;;;;;5.97;5.45;;;;;;;9.36;80.82;101828.47;7773161;18;20005;-71
2023/04/18 08:03:09;;;;;;;6.93;6.32;;;;;;;9.12;79.84;101804.72;7780321;18;20018;-72
2023/04/18 08:05:40;;;;;;;7.22;6.53;;;;;;;9.15;83.12;101854.38;7753415;18;20430;-71
2023/04/18 08:08:09;;;;;;;6.50;6.00;;;;;;;9.08;83.83;101865.06;7734501;18;20202;-73
2023/04/18 08:10:35;;;;;;;6.72;5.82;;;;;;;9.03;85.39;101875.66;7730367;18;20142;-72
2023/04/18 08:13:02;;;;;;;7.20;6.47;;;;;;;9.07;85.73;101890.41;7782492;18;20061;-71
2023/04/18 08:15:31;;;;;;;13.10;6.43;;;;;;;8.54;84.16;101808.94;7771416;18;20083;-70
2023/04/18 08:17:59;;;;;;;7.22;6.63;;;;;;;9.03;85.38;101883.53;7738266;18;20002;-71
2023/04/18 08:20:29;;;;;;;6.95;6.35;;;;;;;8.99;84.26;101877.50;7783949;18;20021;-72
2023/04/18 08:22:55;;;;;;;6.30;5.80;;;;;;;8.50;84.92;101786.34;7777309;18;20022;-69
2023/04/18 08:25:35;;;;;;;6.43;5.57;;;;;;;9.30;86.09;101902.00;7734341;18;20009;-70
2023/04/18 08:28:01;;;;;;;8.75;6.20;;;;;;;9.26;85.73;101895.13;7779293;18;20006;-69
2023/04/18 08:30:28;;;;;;;7.25;6.60;;;;;;;9.22;84.64;101872.56;7769096;18;20072;-71
2023/04/18 08:32:54;;;;;;;9.57;6.03;;;;;;;9.31;85.71;101896.72;7778591;18;20082;-71
2023/04/18 08:35:21;;;;;;;6.07;5.57;;;;;;;9.40;84.56;101874.66;7783424;18;20492;-69
2023/04/18 08:37:47;;;;;;;7.68;5.57;;;;;;;9.59;83.92;101883.72;7788891;18;20002;-70
2023/04/18 08:40:13;;;;;;;6.47;5.82;;;;;;;9.43;81.95;101845.75;7789068;18;20214;-70
2023/04/18 08:42:43;;;;;;;7.68;6.90;;;;;;;9.55;82.59;101866.34;7746810;18;20053;-70
2023/04/18 08:45:13;;;;;;;5.75;5.35;;;;;;;9.66;81.38;101855.56;7788546;18;20005;-69
2023/04/18 08:47:40;;;;;;;6.15;5.63;;;;;;;9.78;79.92;101839.47;7786799;18;20021;-70
2023/04/18 08:50:08;;;;;;;6.38;5.85;;;;;;;9.74;79.96;101813.38;7788343;18;20042;-71
2023/04/18 08:52:36;;;;;;;6.90;6.18;;;;;;;10.01;78.87;101845.75;7745792;18;20013;-71
2023/04/18 08:55:04;;;;;;;7.38;6.75;;;;;;;10.05;78.92;101836.88;7789622;18;20038;-72
2023/04/18 08:57:32;;;;;;;9.82;6.32;;;;;;;9.71;77.60;101792.53;7836067;18;20022;-73
2023/04/18 09:00:01;;;;;;;8.98;7.13;;;;;;;9.85;77.92;101806.06;7787553;18;20006;-72
2023/04/18 09:02:41;;;;;;;11.20;6.78;;;;;;;9.75;78.45;101825.59;7747092;18;20018;-70
2023/04/18 09:05:12;;;;;;;7.03;6.40;;;;;;;9.80;79.61;101839.41;7789658;18;20404;-71
2023/04/18 09:07:40;;;;;;;6.07;5.57;;;;;;;9.97;80.52;101862.50;7835677;18;20261;-70
2023/04/18 09:10:08;;;;;;;11.77;7.10;;;;;;;9.61;80.40;101810.28;7746088;18;20438;-69
2023/04/18 09:12:48;;;;;;;11.30;7.20;;;;;;;9.91;80.40;101858.28;7836299;18;20009;-71
2023/04/18 09:15:19;;;;;;;7.78;6.72;;;;;;;10.04;80.45;101861.38;7787432;18;20009;-70
2023/04/18 09:17:56;;;;;;;9.43;6.32;;;;;;;9.76;80.01;101827.28;7836801;18;20477;-69
2023/04/18 09:20:36;;;;;;;9.18;7.50;;;;;;;10.14;79.42;101875.06;7743244;18;20446;-72
2023/04/18 09:23:13;;;;;;;7.40;6.70;;;;;;;10.77;78.95;101891.44;7835899;18;20268;-72
2023/04/18 09:25:40;;;;;;;8.68;7.18;;;;;;;10.78;78.35;101861.63;7790429;18;20009;-69
2023/04/18 09:28:26;;;;;;;8.38;7.32;;;;;;;10.78;76.59;101827.50;7836433;18;20351;-71
2023/04/18 09:30:58;;;;;;;6.93;6.30;;;;;;;10.49;76.85;101823.25;7786615;18;20175;-71
2023/04/18 09:33:35;;;;;;;7.68;6.90;;;;;;;10.12;76.52;101787.69;7833840;18;20012;-69
2023/04/18 09:36:20;;;;;;;7.47;6.88;;;;;;;10.26;76.96;101814.34;7787871;18;20426;-69
2023/04/18 09:38:48;;;;;;;7.55;6.82;;;;;;;10.35;77.94;101832.44;7835504;18;20068;-71
2023/04/18 09:41:15;;;;;;;7.55;6.68;;;;;;;9.93;78.39;101785.69;7787985;18;20029;-71
2023/04/18 09:43:47;;;;;;;7.18;6.55;;;;;;;10.20;78.60;101830.28;7794806;18;19989;-73
2023/04/18 09:46:16;;;;;;;8.38;7.03;;;;;;;9.59;79.12;101757.06;7787869;18;20002;-70
2023/04/18 09:48:43;;;;;;;6.53;5.95;;;;;;;10.21;79.09;101844.28;7834574;18;20070;-71
2023/04/18 09:51:13;;;;;;;9.43;7.40;;;;;;;10.39;79.49;101856.81;7788018;18;20012;-71
2023/04/18 09:53:43;;;;;;;10.70;7.55;;;;;;;10.56;79.37;101865.00;7835205;18;20069;-70
2023/04/18 09:56:26;;;;;;;7.70;7.03;;;;;;;10.61;77.48;101837.75;7788780;18;20228;-72
2023/04/18 09:59:01;;;;;;;7.05;6.45;;;;;;;10.48;76.32;101798.75;7844583;18;20447;-71
2023/04/18 10:01:28;;;;;;;8.02;6.82;;;;;;;10.71;76.51;101824.25;7800244;18;20391;-71
2023/04/18 10:03:56;;;;;;;8.13;7.35;;;;;;;10.81;76.28;101816.06;7836446;18;20379;-71
2023/04/18 10:06:26;;;;;;;7.18;6.47;;;;;;;10.73;77.05;101798.78;7792933;18;20010;-72
2023/04/18 10:08:53;;;;;;;9.35;6.28;;;;;;;10.97;76.32;101819.84;7840393;18;20009;-70
2023/04/18 10:11:20;;;;;;;7.35;6.65;;;;;;;10.77;75.86;101792.50;7793522;18;20065;-71
2023/04/18 10:13:49;;;;;;;8.80;7.18;;;;;;;10.53;76.58;101767.13;7838607;18;19997;-73
2023/04/18 10:16:16;;;;;;;8.38;6.93;;;;;;;10.95;76.31;101847.94;7792596;18;20022;-72
2023/04/18 10:18:42;;;;;;;7.80;6.30;;;;;;;10.81;75.17;101802.91;7835671;18;20017;-70
2023/04/18 10:21:09;;;;;;;8.02;7.38;;;;;;;10.94;75.99;101812.94;7788257;18;20005;-71
2023/04/18 10:23:37;;;;;;;7.50;6.78;;;;;;;10.58;75.48;101726.69;7842451;18;20065;-69
2023/04/18 10:26:13;;;;;;;6.50;6.00;;;;;;;10.61;74.75;101738.84;7794441;18;20010;-70
2023/04/18 10:28:57;;;;;;;9.57;6.40;;;;;;;10.83;75.27;101769.59;7841979;18;20079;-71
2023/04/18 10:31:27;;;;;;;7.18;6.57;;;;;;;11.06;73.93;101782.72;7791880;18;20002;-70
2023/04/18 10:33:56;;;;;;;6.32;5.72;;;;;;;11.45;72.87;101773.41;7833906;18;20075;-71
2023/04/18 10:36:26;;;;;;;8.00;6.90;;;;;;;11.33;72.75;101749.31;7791734;18;20002;-70
2023/04/18 10:38:58;;;;;;;8.60;6.93;;;;;;;11.63;70.79;101745.56;7793225;18;19998;-70
2023/04/18 10:41:26;;;;;;;7.40;6.70;;;;;;;11.22;71.02;101670.03;7788079;18;20226;-70
2023/04/18 10:44:08;;;;;;;7.38;6.68;;;;;;;11.79;70.67;101725.59;7833786;18;20508;-73
2023/04/18 10:46:36;;;;;;;9.00;6.35;;;;;;;11.86;70.49;101734.94;7788439;18;20036;-72
2023/04/18 10:49:16;;;;;;;7.47;6.70;;;;;;;11.64;69.45;101690.25;7834437;18;19997;-72
2023/04/18 10:51:44;;;;;;;12.02;7.55;;;;;;;11.57;70.59;101701.94;7787464;18;20327;-71
2023/04/18 10:54:18;;;;;;;12.13;7.45;;;;;;;11.57;71.23;101722.97;7834657;18;20621;-73
2023/04/18 10:56:56;;;;;;;8.65;6.80;;;;;;;11.54;72.36;101749.38;7788521;18;20014;-71
2023/04/18 10:59:25;;;;;;;10.30;7.72;;;;;;;11.71;75.43;101825.84;7793650;18;20260;-70
2023/04/18 11:01:58;;;;;;;7.68;6.40;;;;;;;12.53;73.30;101833.09;7787319;18;19994;-71
2023/04/18 11:04:24;;;;;;;7.72;6.85;;;;;;;13.02;70.38;101804.63;7791672;18;20067;-71
2023/04/18 11:06:59;;;;;;;10.02;7.53;;;;;;;12.91;69.65;101752.41;7786844;18;20451;-69
2023/04/18 11:09:25;;;;;;;8.52;7.60;;;;;;;12.33;69.81;101700.53;7834150;18;20001;-71
2023/04/18 11:12:09;;;;;;;8.20;7.50;;;;;;;12.35;72.68;101775.03;7786045;18;20065;-71
2023/04/18 11:14:42;;;;;;;9.32;6.93;;;;;;;12.06;71.70;101697.31;7833134;18;20002;-69
2023/04/18 11:17:26;;;;;;;10.25;7.82;;;;;;;11.76;70.20;101652.91;7788561;18;19998;-71
2023/04/18 11:20:00;;;;;;;14.77;7.68;;;;;;;12.33;72.79;101789.19;7833316;18;20002;-69
2023/04/18 11:22:26;;;;;;;10.57;7.28;;;;;;;12.20;74.59;101812.50;7786154;18;20305;-70
2023/04/18 11:24:57;;;;;;;10.40;7.30;;;;;;;11.44;74.09;101714.69;7833855;18;20458;-70
2023/04/18 11:27:28;;;;;;;10.77;7.75;;;;;;;11.78;75.20;101777.31;7789368;18;20009;-71
2023/04/18 11:29:55;;;;;;;8.25;7.47;;;;;;;11.54;75.43;101747.59;7835558;18;20002;-71